createdAt,value
2023-03-23T15:58:45.658Z,14.40
2023-03-23T16:01:18.272Z,14.40
2023-03-23T16:03:49.241Z,14.40
2023-03-23T16:06:25.018Z,14.40
2023-03-23T16:08:56.496Z,14.50
2023-03-23T16:11:25.632Z,14.50
2023-03-23T16:13:52.611Z,14.40
2023-03-23T16:16:28.496Z,14.40
2023-03-23T16:18:55.986Z,14.40
2023-03-23T16:21:23.439Z,14.30
2023-03-23T16:23:50.269Z,14.30
2023-03-23T16:26:17.719Z,14.20
2023-03-23T16:28:44.669Z,14.20
2023-03-23T16:31:12.083Z,14.10
2023-03-23T16:33:39.180Z,14.10
2023-03-23T16:36:06.518Z,14.00
2023-03-23T16:38:33.397Z,14.00
2023-03-23T16:41:16.692Z,14.00
2023-03-23T16:43:43.524Z,14.00
2023-03-23T16:46:13.176Z,14.00
2023-03-23T16:48:39.960Z,14.00
2023-03-23T16:51:07.343Z,14.00
2023-03-23T16:53:34.169Z,14.00
2023-03-23T16:56:00.886Z,14.00
2023-03-23T16:58:28.177Z,13.90
2023-03-23T17:00:54.905Z,13.90
2023-03-23T17:03:22.725Z,13.80
2023-03-23T17:05:51.390Z,13.80
2023-03-23T17:08:19.408Z,13.70
2023-03-23T17:10:47.120Z,13.60
2023-03-23T17:13:13.936Z,13.50
2023-03-23T17:15:43.822Z,13.40
2023-03-23T17:18:13.233Z,13.40
2023-03-23T17:20:40.279Z,13.30
2023-03-23T17:23:06.980Z,13.30
2023-03-23T17:25:33.747Z,13.20
2023-03-23T17:28:05.386Z,13.30
2023-03-23T17:30:33.170Z,13.20
2023-03-23T17:33:00.150Z,13.20
2023-03-23T17:35:27.113Z,13.20
2023-03-23T17:37:56.155Z,13.20
2023-03-23T17:40:22.867Z,13.20
2023-03-23T17:42:49.661Z,13.20
2023-03-23T17:45:16.640Z,13.20
2023-03-23T17:47:43.435Z,13.20
2023-03-23T17:50:11.873Z,13.10
2023-03-23T17:52:40.297Z,13.10
2023-03-23T17:55:07.744Z,13.10
2023-03-23T17:57:35.255Z,13.10
2023-03-23T18:00:03.020Z,13.10
2023-03-23T18:02:29.898Z,13.10
2023-03-23T18:04:59.876Z,13.10
2023-03-23T18:07:27.081Z,13.10
2023-03-23T18:09:58.591Z,13.10
2023-03-23T18:12:25.560Z,13.10
2023-03-23T18:14:56.762Z,13.10
2023-03-23T18:17:23.684Z,13.10
2023-03-23T18:19:51.052Z,13.10
2023-03-23T18:22:17.856Z,13.00
2023-03-23T18:24:44.708Z,13.00
2023-03-23T18:27:11.506Z,13.00
2023-03-23T18:29:38.288Z,13.00
2023-03-23T18:32:07.349Z,12.90
2023-03-23T18:34:36.369Z,12.90
2023-03-23T18:37:04.143Z,12.80
2023-03-23T18:39:34.009Z,12.70
2023-03-23T18:42:01.042Z,12.70
2023-03-23T18:44:27.858Z,12.60
2023-03-23T18:46:54.575Z,12.50
2023-03-23T18:49:21.329Z,12.40
2023-03-23T18:51:48.526Z,12.30
2023-03-23T18:54:15.311Z,12.20
2023-03-23T18:56:42.077Z,12.10
2023-03-23T18:59:09.121Z,12.10
2023-03-23T19:01:36.317Z,12.00
2023-03-23T19:04:06.964Z,12.00
2023-03-23T19:06:34.921Z,12.00
2023-03-23T19:09:01.998Z,12.00
2023-03-23T19:11:28.844Z,12.00
2023-03-23T19:14:02.444Z,12.00
2023-03-23T19:16:35.790Z,12.00
2023-03-23T19:19:04.455Z,12.10
2023-03-23T19:21:32.066Z,12.00
2023-03-23T19:23:59.303Z,12.00
2023-03-23T19:26:34.768Z,12.10
2023-03-23T19:31:35.417Z,12.00
2023-03-23T19:34:02.144Z,12.10
2023-03-23T19:36:28.986Z,12.00
2023-03-23T19:38:57.686Z,12.00
2023-03-23T19:41:29.392Z,12.00
2023-03-23T19:43:56.107Z,12.00
2023-03-23T19:46:23.756Z,11.90
2023-03-23T19:48:50.730Z,11.90
2023-03-23T19:51:20.014Z,11.80
2023-03-23T19:53:47.436Z,11.80
2023-03-23T19:56:19.606Z,11.80
2023-03-23T19:58:46.990Z,11.70
2023-03-23T20:01:14.473Z,11.70
2023-03-23T20:03:42.256Z,11.70
2023-03-23T20:06:15.182Z,11.60
2023-03-23T20:08:44.296Z,11.70
2023-03-23T20:11:13.584Z,11.60
2023-03-23T20:13:41.396Z,11.60
2023-03-23T20:16:09.127Z,11.50
2023-03-23T20:18:38.033Z,11.50
2023-03-23T20:21:10.816Z,11.40
2023-03-23T20:23:39.473Z,11.40
2023-03-23T20:26:09.938Z,11.40
2023-03-23T20:28:36.986Z,11.30
2023-03-23T20:31:23.411Z,11.30
2023-03-23T20:33:59.861Z,11.30
2023-03-23T20:36:47.095Z,11.30
2023-03-23T20:39:21.271Z,11.30
2023-03-23T20:41:50.826Z,11.30
2023-03-23T20:44:19.926Z,11.30
2023-03-23T20:46:48.309Z,11.30
2023-03-23T20:49:15.950Z,11.30
2023-03-23T20:51:44.768Z,11.30
2023-03-23T20:54:14.106Z,11.30
2023-03-23T20:56:42.377Z,11.30
2023-03-23T20:59:10.068Z,11.30
2023-03-23T21:01:39.792Z,11.30
2023-03-23T21:04:14.808Z,11.30
2023-03-23T21:06:42.952Z,11.40
2023-03-23T21:09:10.109Z,11.40
2023-03-23T21:11:37.365Z,11.40
2023-03-23T21:14:05.246Z,11.40
2023-03-23T21:16:32.043Z,11.40
2023-03-23T21:18:59.135Z,11.30
2023-03-23T21:21:27.347Z,11.30
2023-03-23T21:23:55.695Z,11.30
2023-03-23T21:26:24.514Z,11.30
2023-03-23T21:28:53.826Z,11.30
2023-03-23T21:31:23.470Z,11.30
2023-03-23T21:33:50.695Z,11.30
2023-03-23T21:36:17.432Z,11.30
2023-03-23T21:38:44.763Z,11.30
2023-03-23T21:41:14.130Z,11.30
2023-03-23T21:43:41.186Z,11.30
2023-03-23T21:46:09.357Z,11.30
2023-03-23T21:48:41.332Z,11.20
2023-03-23T21:51:09.776Z,11.20
2023-03-23T21:53:37.078Z,11.20
2023-03-23T21:56:06.971Z,11.20
2023-03-23T21:58:36.580Z,11.10
2023-03-23T22:01:05.264Z,11.10
2023-03-23T22:03:32.950Z,11.00
2023-03-23T22:06:05.714Z,10.90
2023-03-23T22:08:32.972Z,10.90
2023-03-23T22:11:02.036Z,10.90
2023-03-23T22:13:30.686Z,10.80
2023-03-23T22:15:59.010Z,10.80
2023-03-23T22:18:26.057Z,10.80
2023-03-23T22:20:53.375Z,10.70
2023-03-23T22:23:20.380Z,10.80
2023-03-23T22:25:47.356Z,10.80
2023-03-23T22:28:14.162Z,10.80
2023-03-23T22:30:41.128Z,10.80
2023-03-23T22:33:08.117Z,10.80
2023-03-23T22:35:35.083Z,10.80
2023-03-23T22:38:03.230Z,10.80
2023-03-23T22:40:31.713Z,10.80
2023-03-23T22:42:58.581Z,10.80
2023-03-23T22:45:26.200Z,10.90
2023-03-23T22:47:53.089Z,10.90
2023-03-23T22:50:21.560Z,10.90
2023-03-23T22:52:48.597Z,11.00
2023-03-23T22:55:15.430Z,11.00
2023-03-23T22:57:42.263Z,11.00
2023-03-23T23:00:14.398Z,11.00
2023-03-23T23:02:42.360Z,11.10
2023-03-23T23:05:10.248Z,11.10
2023-03-23T23:07:37.587Z,11.10
2023-03-23T23:10:05.058Z,11.10
2023-03-23T23:12:31.904Z,11.20
2023-03-23T23:14:58.904Z,11.20
2023-03-23T23:17:26.624Z,11.20
2023-03-23T23:19:53.495Z,11.20
2023-03-23T23:22:20.453Z,11.20
2023-03-23T23:24:47.394Z,11.20
2023-03-23T23:27:14.563Z,11.30
2023-03-23T23:29:41.396Z,11.20
2023-03-23T23:32:08.287Z,11.30
2023-03-23T23:34:35.881Z,11.20
2023-03-23T23:37:02.640Z,11.20
2023-03-23T23:39:30.411Z,11.20
2023-03-23T23:41:57.096Z,11.20
2023-03-23T23:44:23.885Z,11.10
2023-03-23T23:46:50.611Z,11.10
2023-03-23T23:49:17.305Z,11.10
2023-03-23T23:51:44.742Z,11.00
2023-03-23T23:54:14.611Z,11.00
2023-03-23T23:56:41.321Z,10.90
2023-03-23T23:59:08.026Z,10.90
